createdAt,value
2023-08-17T00:04:46.570Z,100.00
2023-08-17T00:14:47.955Z,99.70
2023-08-17T00:24:49.525Z,100.00
2023-08-17T00:34:50.972Z,96.35
2023-08-17T00:44:52.395Z,100.00
2023-08-17T00:54:55.190Z,100.00
2023-08-17T01:04:56.766Z,100.00
2023-08-17T01:15:17.086Z,100.00
2023-08-17T01:25:18.720Z,100.00
2023-08-17T01:35:36.312Z,100.00
2023-08-17T01:45:37.972Z,100.00
2023-08-17T01:55:39.748Z,100.00
2023-08-17T02:05:46.833Z,100.00
2023-08-17T02:15:48.599Z,100.00
2023-08-17T02:25:50.090Z,100.00
2023-08-17T02:35:51.960Z,100.00
2023-08-17T02:45:53.469Z,100.00
2023-08-17T02:55:55.083Z,100.00
2023-08-17T03:05:56.517Z,100.00
2023-08-17T03:15:58.006Z,100.00
2023-08-17T03:26:00.003Z,100.00
2023-08-17T03:36:01.815Z,100.00
2023-08-17T03:46:05.229Z,100.00
2023-08-17T03:56:06.726Z,100.00
2023-08-17T04:06:11.252Z,100.00
2023-08-17T04:16:12.752Z,100.00
2023-08-17T04:26:14.330Z,100.00
2023-08-17T04:36:15.841Z,100.00
2023-08-17T04:46:17.377Z,100.00
2023-08-17T04:56:18.966Z,100.00
2023-08-17T05:06:20.494Z,100.00
2023-08-17T05:16:22.026Z,100.00
2023-08-17T05:26:23.469Z,100.00
2023-08-17T05:36:24.991Z,100.00
2023-08-17T05:46:26.449Z,100.00
2023-08-17T05:56:29.141Z,100.00
2023-08-17T06:06:30.560Z,100.00
2023-08-17T06:16:32.151Z,100.00
2023-08-17T06:26:33.797Z,100.00
2023-08-17T06:36:35.643Z,100.00
2023-08-17T06:46:37.081Z,100.00
2023-08-17T06:56:38.564Z,100.00
2023-08-17T07:06:42.031Z,100.00
2023-08-17T07:16:43.489Z,100.00
2023-08-17T07:26:45.276Z,100.00
2023-08-17T07:36:47.095Z,100.00
2023-08-17T07:46:48.510Z,100.00
2023-08-17T07:56:49.907Z,100.00
2023-08-17T08:06:51.356Z,100.00
2023-08-17T08:16:52.882Z,100.00
2023-08-17T08:26:55.849Z,100.00
2023-08-17T08:36:57.420Z,100.00
2023-08-17T08:46:59.476Z,100.00
2023-08-17T08:57:04.955Z,100.00
2023-08-17T09:07:07.614Z,100.00
2023-08-17T09:17:09.483Z,100.00
2023-08-17T09:27:14.822Z,100.00
2023-08-17T09:37:16.353Z,100.00
2023-08-17T09:47:24.446Z,100.00
2023-08-17T09:57:26.584Z,100.00
2023-08-17T10:07:34.267Z,100.00
2023-08-17T10:17:44.882Z,100.00
2023-08-17T10:27:46.916Z,100.00
2023-08-17T10:37:49.184Z,100.00
2023-08-17T10:47:50.852Z,100.00
2023-08-17T10:57:52.618Z,99.57
2023-08-17T11:07:54.195Z,100.00
2023-08-17T11:17:55.817Z,100.00
2023-08-17T11:27:57.360Z,100.00
2023-08-17T11:37:58.950Z,100.00
2023-08-17T11:48:00.816Z,99.37
2023-08-17T12:08:10.823Z,98.31
2023-08-17T12:18:12.619Z,98.70
2023-08-17T12:28:14.208Z,98.36
2023-08-17T12:38:15.673Z,96.31
2023-08-17T12:48:17.322Z,96.50
2023-08-17T12:58:18.938Z,95.62
2023-08-17T13:08:20.556Z,95.73
2023-08-17T13:18:22.023Z,95.51
2023-08-17T13:28:23.627Z,96.01
2023-08-17T13:38:26.043Z,95.67
2023-08-17T13:48:27.508Z,96.80
2023-08-17T13:58:29.245Z,95.44
2023-08-17T14:08:30.966Z,97.22
2023-08-17T14:18:32.610Z,95.85
2023-08-17T14:28:34.321Z,96.17
2023-08-17T14:38:36.975Z,96.87
2023-08-17T14:48:38.560Z,95.19
2023-08-17T14:58:40.113Z,95.90
2023-08-17T15:08:41.656Z,94.76
2023-08-17T15:18:43.270Z,95.11
2023-08-17T15:28:44.734Z,96.64
2023-08-17T15:38:46.304Z,97.11
2023-08-17T15:48:47.864Z,98.93
2023-08-17T15:58:50.156Z,96.22
2023-08-17T16:08:52.845Z,98.07
2023-08-17T16:18:54.378Z,96.88
2023-08-17T16:28:55.939Z,98.19
2023-08-17T16:38:57.480Z,97.17
2023-08-17T16:48:59.009Z,98.23
2023-08-17T16:59:02.181Z,98.54
2023-08-17T17:09:04.264Z,99.04
2023-08-17T17:19:05.919Z,97.28
2023-08-17T17:29:08.179Z,97.02
2023-08-17T17:39:09.769Z,99.03
2023-08-17T17:49:11.352Z,99.19
2023-08-17T17:59:13.103Z,100.00
2023-08-17T18:09:14.539Z,99.52
2023-08-17T18:19:19.244Z,99.39
2023-08-17T18:29:20.919Z,99.13
2023-08-17T18:39:23.415Z,98.00
2023-08-17T18:49:25.155Z,98.24
2023-08-17T18:59:26.833Z,100.00
2023-08-17T19:09:28.434Z,99.18
2023-08-17T19:19:30.081Z,99.52
2023-08-17T19:29:31.748Z,100.00
2023-08-17T19:39:33.326Z,98.64
2023-08-17T19:49:34.848Z,99.97
2023-08-17T19:59:36.808Z,99.18
2023-08-17T20:09:38.485Z,100.00
2023-08-17T20:19:40.707Z,100.00
2023-08-17T20:29:42.341Z,100.00
2023-08-17T20:39:43.811Z,100.00
2023-08-17T20:49:45.362Z,100.00
2023-08-17T20:59:46.818Z,100.00
2023-08-17T21:09:48.446Z,100.00
2023-08-17T21:19:50.183Z,100.00
2023-08-17T21:29:52.028Z,100.00
2023-08-17T21:39:57.423Z,100.00
2023-08-17T21:49:59.031Z,100.00
2023-08-17T22:00:00.897Z,99.64
2023-08-17T22:10:02.442Z,100.00
2023-08-17T22:20:04.879Z,100.00
2023-08-17T22:30:07.160Z,100.00
2023-08-17T22:40:09.121Z,100.00
2023-08-17T22:50:11.465Z,100.00
2023-08-17T23:00:13.498Z,100.00
2023-08-17T23:10:15.112Z,100.00
2023-08-17T23:20:16.696Z,100.00
2023-08-17T23:30:18.225Z,100.00
2023-08-17T23:40:20.344Z,100.00
2023-08-17T23:50:21.924Z,99.31
